DLH138 EDLV-EHRD
Flight info
| Callsign | DLH138 |
|---|---|
| Flight time | 0h 56m |
| Altitude | 22000 |
| Route | VEBAK4S VEBAK DCT EHOJI P57 INKET |
| Aircraft | A319/M-SDE3FGHIRWY/LB1 |
Departure
| Time | 2026-05-07 18:24 |
|---|---|
| Airport | Weeze (Niederrhein) Airport (EDLV) |
Arrival
| Time | 2026-05-07 19:20 |
|---|---|
| Airport | Rotterdam The Hague Airport (EHRD) |
| Time | Latitude | Longitude | Altitude | Speed | Heading |
|---|---|---|---|---|---|
| 2026-05-07 18:07 | 51.60000 | 6.14716 | 112 ft | 0 kts | 272° |
| 2026-05-07 18:17 | 51.60000 | 6.14729 | 112 ft | 4 kts | 272° |
| 2026-05-07 18:17 | 51.59999 | 6.14767 | 113 ft | 1 kts | 271° |
| 2026-05-07 18:17 | 51.60005 | 6.14746 | 112 ft | 4 kts | 300° |
| 2026-05-07 18:17 | 51.60025 | 6.14719 | 111 ft | 4 kts | 330° |
| 2026-05-07 18:18 | 51.60044 | 6.14730 | 112 ft | 4 kts | 54° |
| 2026-05-07 18:18 | 51.60046 | 6.14767 | 112 ft | 1 kts | 91° |
| 2026-05-07 18:18 | 51.60046 | 6.14768 | 112 ft | 0 kts | 91° |
| 2026-05-07 18:20 | 51.60046 | 6.14790 | 113 ft | 6 kts | 91° |
| 2026-05-07 18:20 | 51.60043 | 6.14922 | 114 ft | 17 kts | 92° |
| 2026-05-07 18:20 | 51.60038 | 6.15127 | 115 ft | 19 kts | 92° |
| 2026-05-07 18:20 | 51.60033 | 6.15336 | 119 ft | 18 kts | 91° |
| 2026-05-07 18:21 | 51.60029 | 6.15551 | 117 ft | 21 kts | 93° |
| 2026-05-07 18:21 | 51.60023 | 6.15791 | 118 ft | 22 kts | 92° |
| 2026-05-07 18:21 | 51.60060 | 6.15950 | 115 ft | 14 kts | 9° |
| 2026-05-07 18:21 | 51.60105 | 6.15951 | 114 ft | 0 kts | 0° |
| 2026-05-07 18:22 | 51.60110 | 6.15951 | 113 ft | 2 kts | 0° |
| 2026-05-07 18:22 | 51.60131 | 6.15951 | 114 ft | 4 kts | 0° |
| 2026-05-07 18:23 | 51.60168 | 6.15951 | 115 ft | 6 kts | 0° |
| 2026-05-07 18:23 | 51.60208 | 6.15921 | 112 ft | 7 kts | 299° |
| 2026-05-07 18:23 | 51.60211 | 6.15881 | 115 ft | 0 kts | 269° |
| 2026-05-07 18:24 | 51.60211 | 6.15880 | 115 ft | 0 kts | 269° |
| 2026-05-07 18:24 | 51.60211 | 6.15796 | 118 ft | 35 kts | 272° |
| 2026-05-07 18:24 | 51.60234 | 6.14808 | 116 ft | 139 kts | 272° |
| 2026-05-07 18:24 | 51.60271 | 6.13075 | 769 ft | 161 kts | 273° |
| 2026-05-07 18:25 | 51.60449 | 6.11283 | 1728 ft | 172 kts | 289° |
| 2026-05-07 18:25 | 51.60889 | 6.09388 | 2369 ft | 192 kts | 297° |
| 2026-05-07 18:25 | 51.61894 | 6.07800 | 2863 ft | 218 kts | 327° |
| 2026-05-07 18:25 | 51.63249 | 6.06593 | 3834 ft | 227 kts | 344° |
| 2026-05-07 18:26 | 51.64822 | 6.06568 | 4943 ft | 231 kts | 17° |
| 2026-05-07 18:26 | 51.66185 | 6.07920 | 6072 ft | 235 kts | 48° |
| 2026-05-07 18:26 | 51.66944 | 6.10242 | 7148 ft | 240 kts | 78° |
| 2026-05-07 18:26 | 51.66829 | 6.12932 | 8152 ft | 248 kts | 112° |
| 2026-05-07 18:27 | 51.65813 | 6.15160 | 9209 ft | 252 kts | 141° |
| 2026-05-07 18:27 | 51.64473 | 6.17104 | 10011 ft | 273 kts | 130° |
| 2026-05-07 18:27 | 51.63566 | 6.19950 | 10499 ft | 302 kts | 105° |
| 2026-05-07 18:27 | 51.63502 | 6.23397 | 10939 ft | 328 kts | 77° |
| 2026-05-07 18:28 | 51.64529 | 6.26794 | 11343 ft | 353 kts | 50° |
| 2026-05-07 18:28 | 51.66334 | 6.29659 | 11667 ft | 376 kts | 40° |
| 2026-05-07 18:28 | 51.68413 | 6.32417 | 11942 ft | 398 kts | 37° |
| 2026-05-07 18:28 | 51.70652 | 6.35156 | 12553 ft | 408 kts | 36° |
| 2026-05-07 18:29 | 51.72939 | 6.37915 | 13328 ft | 413 kts | 36° |
| 2026-05-07 18:29 | 51.75242 | 6.40747 | 14076 ft | 418 kts | 37° |
| 2026-05-07 18:29 | 51.77544 | 6.43655 | 14747 ft | 422 kts | 38° |
| 2026-05-07 18:29 | 51.79814 | 6.46594 | 15392 ft | 426 kts | 38° |
| 2026-05-07 18:30 | 51.82124 | 6.49626 | 15879 ft | 430 kts | 38° |
| 2026-05-07 18:30 | 51.84440 | 6.52693 | 16038 ft | 430 kts | 39° |
| 2026-05-07 18:30 | 51.86740 | 6.55782 | 16074 ft | 430 kts | 39° |
| 2026-05-07 18:30 | 51.89088 | 6.58755 | 16069 ft | 429 kts | 32° |
| 2026-05-07 18:31 | 51.91791 | 6.60785 | 16079 ft | 432 kts | 16° |
| 2026-05-07 18:31 | 51.94751 | 6.61523 | 16079 ft | 434 kts | 359° |
| 2026-05-07 18:31 | 51.97731 | 6.60851 | 16080 ft | 433 kts | 343° |
| 2026-05-07 18:31 | 52.00455 | 6.58832 | 16080 ft | 431 kts | 326° |
| 2026-05-07 18:32 | 52.02707 | 6.55650 | 16080 ft | 430 kts | 310° |
| 2026-05-07 18:32 | 52.04397 | 6.51668 | 16084 ft | 429 kts | 301° |
| 2026-05-07 18:32 | 52.05967 | 6.47551 | 16078 ft | 429 kts | 301° |
| 2026-05-07 18:32 | 52.07532 | 6.43424 | 16084 ft | 429 kts | 301° |
| 2026-05-07 18:33 | 52.09075 | 6.39342 | 16084 ft | 429 kts | 301° |
| 2026-05-07 18:33 | 52.10647 | 6.35184 | 16085 ft | 429 kts | 301° |
| 2026-05-07 18:33 | 52.12211 | 6.31048 | 16085 ft | 429 kts | 301° |
| 2026-05-07 18:33 | 52.13772 | 6.26910 | 16085 ft | 429 kts | 301° |
| 2026-05-07 18:34 | 52.15312 | 6.22820 | 16084 ft | 429 kts | 301° |
| 2026-05-07 18:34 | 52.16866 | 6.18673 | 16061 ft | 427 kts | 301° |
| 2026-05-07 18:34 | 52.18397 | 6.14579 | 15215 ft | 421 kts | 301° |
| 2026-05-07 18:34 | 52.19912 | 6.10518 | 14297 ft | 417 kts | 300° |
| 2026-05-07 18:35 | 52.21411 | 6.06497 | 13389 ft | 412 kts | 301° |
| 2026-05-07 18:35 | 52.22894 | 6.02526 | 12502 ft | 407 kts | 301° |
| 2026-05-07 18:35 | 52.24357 | 5.98608 | 11677 ft | 401 kts | 301° |
| 2026-05-07 18:35 | 52.25794 | 5.94745 | 10839 ft | 396 kts | 301° |
| 2026-05-07 18:36 | 52.27178 | 5.91017 | 10473 ft | 379 kts | 301° |
| 2026-05-07 18:36 | 52.28514 | 5.87420 | 10347 ft | 354 kts | 301° |
| 2026-05-07 18:36 | 52.29737 | 5.84126 | 10227 ft | 334 kts | 301° |
| 2026-05-07 18:36 | 52.30903 | 5.80978 | 10111 ft | 316 kts | 301° |
| 2026-05-07 18:37 | 52.32012 | 5.77978 | 9986 ft | 300 kts | 301° |
| 2026-05-07 18:37 | 52.33064 | 5.75127 | 9849 ft | 287 kts | 300° |
| 2026-05-07 18:37 | 52.34081 | 5.72370 | 9556 ft | 280 kts | 300° |
| 2026-05-07 18:37 | 52.35081 | 5.69654 | 9283 ft | 277 kts | 300° |
| 2026-05-07 18:38 | 52.36071 | 5.66958 | 9171 ft | 279 kts | 300° |
| 2026-05-07 18:38 | 52.37067 | 5.64241 | 9058 ft | 279 kts | 300° |
| 2026-05-07 18:38 | 52.37890 | 5.61521 | 8965 ft | 279 kts | 288° |
| 2026-05-07 18:38 | 52.38240 | 5.58420 | 8861 ft | 278 kts | 271° |
| 2026-05-07 18:39 | 52.38062 | 5.55279 | 8756 ft | 278 kts | 260° |
| 2026-05-07 18:39 | 52.37748 | 5.52165 | 8653 ft | 277 kts | 260° |
| 2026-05-07 18:39 | 52.37439 | 5.49054 | 8550 ft | 277 kts | 260° |
| 2026-05-07 18:39 | 52.37134 | 5.45942 | 8447 ft | 277 kts | 261° |
| 2026-05-07 18:40 | 52.36797 | 5.42888 | 8344 ft | 277 kts | 254° |
| 2026-05-07 18:40 | 52.35929 | 5.40112 | 8244 ft | 276 kts | 232° |
| 2026-05-07 18:40 | 52.34678 | 5.37733 | 8143 ft | 275 kts | 228° |
| 2026-05-07 18:40 | 52.33413 | 5.35383 | 8039 ft | 275 kts | 228° |
| 2026-05-07 18:41 | 52.32144 | 5.33041 | 7945 ft | 275 kts | 228° |
| 2026-05-07 18:41 | 52.30878 | 5.30701 | 7844 ft | 274 kts | 228° |
| 2026-05-07 18:41 | 52.29617 | 5.28364 | 7747 ft | 274 kts | 228° |
| 2026-05-07 18:41 | 52.28359 | 5.26028 | 7648 ft | 273 kts | 228° |
| 2026-05-07 18:42 | 52.27124 | 5.23731 | 7551 ft | 273 kts | 228° |
| 2026-05-07 18:42 | 52.25873 | 5.21408 | 7454 ft | 272 kts | 228° |
| 2026-05-07 18:42 | 52.24614 | 5.19078 | 7355 ft | 272 kts | 228° |
| 2026-05-07 18:42 | 52.23362 | 5.16765 | 7258 ft | 271 kts | 228° |
| 2026-05-07 18:43 | 52.22129 | 5.14489 | 7163 ft | 271 kts | 228° |
| 2026-05-07 18:43 | 52.20882 | 5.12189 | 7066 ft | 270 kts | 227° |
| 2026-05-07 18:43 | 52.19637 | 5.09893 | 6969 ft | 269 kts | 227° |
| 2026-05-07 18:43 | 52.18398 | 5.07608 | 6874 ft | 269 kts | 227° |
| 2026-05-07 18:44 | 52.17157 | 5.05330 | 6783 ft | 269 kts | 227° |
| 2026-05-07 18:44 | 52.15916 | 5.03052 | 6686 ft | 268 kts | 227° |
| 2026-05-07 18:44 | 52.14679 | 5.00780 | 6595 ft | 268 kts | 227° |
| 2026-05-07 18:44 | 52.13444 | 4.98509 | 6500 ft | 268 kts | 227° |
| 2026-05-07 18:45 | 52.12244 | 4.96309 | 6406 ft | 267 kts | 227° |
| 2026-05-07 18:45 | 52.10982 | 4.93996 | 6300 ft | 267 kts | 227° |
| 2026-05-07 18:45 | 52.09766 | 4.91770 | 6203 ft | 267 kts | 227° |
| 2026-05-07 18:45 | 52.08533 | 4.89517 | 6104 ft | 267 kts | 227° |
| 2026-05-07 18:46 | 52.07299 | 4.87266 | 6008 ft | 267 kts | 227° |
| 2026-05-07 18:46 | 52.06066 | 4.85017 | 5904 ft | 266 kts | 227° |
| 2026-05-07 18:46 | 52.04834 | 4.82770 | 5807 ft | 266 kts | 227° |
| 2026-05-07 18:46 | 52.03600 | 4.80522 | 5710 ft | 266 kts | 227° |
| 2026-05-07 18:47 | 52.02378 | 4.78296 | 5614 ft | 265 kts | 227° |
| 2026-05-07 18:47 | 52.01149 | 4.76059 | 5515 ft | 266 kts | 227° |
| 2026-05-07 18:47 | 51.99919 | 4.73827 | 5419 ft | 265 kts | 227° |
| 2026-05-07 18:47 | 51.98687 | 4.71592 | 5322 ft | 265 kts | 227° |
| 2026-05-07 18:48 | 51.97463 | 4.69370 | 5215 ft | 265 kts | 227° |
| 2026-05-07 18:48 | 51.96283 | 4.67228 | 5099 ft | 265 kts | 227° |
| 2026-05-07 18:48 | 51.95057 | 4.65008 | 5081 ft | 265 kts | 227° |
| 2026-05-07 18:48 | 51.93810 | 4.62810 | 5083 ft | 265 kts | 227° |
| 2026-05-07 18:49 | 51.92590 | 4.60622 | 5083 ft | 265 kts | 227° |
| 2026-05-07 18:49 | 51.91364 | 4.58393 | 5085 ft | 265 kts | 227° |
| 2026-05-07 18:49 | 51.90141 | 4.56162 | 5082 ft | 265 kts | 227° |
| 2026-05-07 18:49 | 51.88929 | 4.53900 | 5085 ft | 265 kts | 229° |
| 2026-05-07 18:50 | 51.87761 | 4.51590 | 5085 ft | 265 kts | 230° |
| 2026-05-07 18:50 | 51.86613 | 4.49263 | 5085 ft | 265 kts | 230° |
| 2026-05-07 18:50 | 51.85480 | 4.46960 | 5083 ft | 265 kts | 230° |
| 2026-05-07 18:50 | 51.84328 | 4.44631 | 5084 ft | 265 kts | 230° |
| 2026-05-07 18:51 | 51.83176 | 4.42321 | 5083 ft | 258 kts | 230° |
| 2026-05-07 18:51 | 51.82081 | 4.40145 | 4963 ft | 243 kts | 229° |
| 2026-05-07 18:51 | 51.81039 | 4.38087 | 4828 ft | 231 kts | 229° |
| 2026-05-07 18:51 | 51.80048 | 4.36129 | 4702 ft | 220 kts | 229° |
| 2026-05-07 18:52 | 51.79104 | 4.34264 | 4567 ft | 210 kts | 229° |
| 2026-05-07 18:52 | 51.78203 | 4.32473 | 4428 ft | 201 kts | 231° |
| 2026-05-07 18:52 | 51.77723 | 4.30405 | 4209 ft | 200 kts | 268° |
| 2026-05-07 18:52 | 51.78128 | 4.28307 | 3931 ft | 199 kts | 308° |
| 2026-05-07 18:53 | 51.79192 | 4.26899 | 3641 ft | 199 kts | 330° |
| 2026-05-07 18:53 | 51.80387 | 4.25773 | 3403 ft | 198 kts | 332° |
| 2026-05-07 18:53 | 51.81589 | 4.24687 | 3186 ft | 198 kts | 333° |
| 2026-05-07 18:53 | 51.82783 | 4.23602 | 3007 ft | 195 kts | 333° |
| 2026-05-07 18:54 | 51.83950 | 4.22543 | 2874 ft | 190 kts | 333° |
| 2026-05-07 18:54 | 51.85120 | 4.21721 | 2735 ft | 183 kts | 356° |
| 2026-05-07 18:54 | 51.86313 | 4.22095 | 2591 ft | 173 kts | 28° |
| 2026-05-07 18:54 | 51.87273 | 4.23216 | 2400 ft | 169 kts | 49° |
| 2026-05-07 18:55 | 51.87952 | 4.24759 | 2179 ft | 168 kts | 58° |
| 2026-05-07 18:55 | 51.88588 | 4.26333 | 2044 ft | 167 kts | 58° |
| 2026-05-07 18:55 | 51.89221 | 4.27904 | 2010 ft | 167 kts | 58° |
| 2026-05-07 18:55 | 51.89831 | 4.29417 | 1951 ft | 156 kts | 58° |
| 2026-05-07 18:56 | 51.90407 | 4.30847 | 1788 ft | 144 kts | 58° |
| 2026-05-07 18:56 | 51.90925 | 4.32136 | 1611 ft | 130 kts | 58° |
| 2026-05-07 18:56 | 51.91398 | 4.33311 | 1439 ft | 120 kts | 58° |
| 2026-05-07 18:56 | 51.91837 | 4.34405 | 1281 ft | 115 kts | 58° |
| 2026-05-07 18:57 | 51.92271 | 4.35487 | 1127 ft | 115 kts | 58° |
| 2026-05-07 18:57 | 51.92705 | 4.36569 | 974 ft | 115 kts | 57° |
| 2026-05-07 18:57 | 51.93139 | 4.37650 | 818 ft | 115 kts | 57° |
| 2026-05-07 18:57 | 51.93549 | 4.38772 | 664 ft | 117 kts | 58° |
| 2026-05-07 18:58 | 51.94037 | 4.39937 | 760 ft | 138 kts | 54° |
| 2026-05-07 18:58 | 51.94585 | 4.41258 | 1520 ft | 149 kts | 56° |
| 2026-05-07 18:58 | 51.95200 | 4.42767 | 1979 ft | 174 kts | 57° |
| 2026-05-07 18:58 | 51.95884 | 4.44461 | 2007 ft | 181 kts | 57° |
| 2026-05-07 18:59 | 51.96569 | 4.46183 | 2003 ft | 182 kts | 58° |
| 2026-05-07 18:59 | 51.97011 | 4.48079 | 1988 ft | 183 kts | 88° |
| 2026-05-07 18:59 | 51.96594 | 4.50002 | 2017 ft | 187 kts | 128° |
| 2026-05-07 18:59 | 51.95371 | 4.51132 | 2169 ft | 232 kts | 166° |
| 2026-05-07 19:00 | 51.93649 | 4.51234 | 2456 ft | 256 kts | 181° |
| 2026-05-07 19:00 | 51.91884 | 4.51059 | 2709 ft | 258 kts | 182° |
| 2026-05-07 19:00 | 51.90086 | 4.50854 | 2926 ft | 260 kts | 182° |
| 2026-05-07 19:00 | 51.88225 | 4.50643 | 2998 ft | 269 kts | 182° |
| 2026-05-07 19:01 | 51.86437 | 4.50063 | 2996 ft | 263 kts | 204° |
| 2026-05-07 19:01 | 51.85027 | 4.48220 | 3010 ft | 268 kts | 233° |
| 2026-05-07 19:01 | 51.83998 | 4.45342 | 3026 ft | 320 kts | 242° |
| 2026-05-07 19:01 | 51.82957 | 4.42061 | 3016 ft | 326 kts | 243° |
| 2026-05-07 19:02 | 51.81977 | 4.38935 | 2992 ft | 298 kts | 242° |
| 2026-05-07 19:02 | 51.81088 | 4.36064 | 2997 ft | 274 kts | 243° |
| 2026-05-07 19:02 | 51.80259 | 4.33362 | 3005 ft | 266 kts | 243° |
| 2026-05-07 19:02 | 51.79580 | 4.30600 | 3003 ft | 266 kts | 259° |
| 2026-05-07 19:03 | 51.79682 | 4.27657 | 2821 ft | 263 kts | 287° |
| 2026-05-07 19:03 | 51.80597 | 4.25205 | 2339 ft | 259 kts | 318° |
| 2026-05-07 19:03 | 51.82078 | 4.23627 | 2033 ft | 254 kts | 340° |
| 2026-05-07 19:03 | 51.83787 | 4.23278 | 2004 ft | 243 kts | 11° |
| 2026-05-07 19:04 | 51.85278 | 4.24218 | 2006 ft | 221 kts | 30° |
| 2026-05-07 19:04 | 51.86557 | 4.25405 | 2009 ft | 203 kts | 32° |
| 2026-05-07 19:04 | 51.87727 | 4.26518 | 2007 ft | 188 kts | 33° |
| 2026-05-07 19:04 | 51.88833 | 4.27575 | 2011 ft | 184 kts | 32° |
| 2026-05-07 19:05 | 51.89836 | 4.28821 | 1953 ft | 182 kts | 58° |
| 2026-05-07 19:05 | 51.90318 | 4.30705 | 1796 ft | 182 kts | 68° |
| 2026-05-07 19:05 | 51.90989 | 4.32399 | 1610 ft | 174 kts | 56° |
| 2026-05-07 19:05 | 51.91642 | 4.33958 | 1365 ft | 158 kts | 57° |
| 2026-05-07 19:06 | 51.92196 | 4.35317 | 1154 ft | 134 kts | 58° |
| 2026-05-07 19:06 | 51.93123 | 4.37617 | 815 ft | 116 kts | 57° |
| 2026-05-07 19:06 | 51.93574 | 4.38736 | 638 ft | 122 kts | 57° |
| 2026-05-07 19:07 | 51.94049 | 4.39898 | 473 ft | 125 kts | 56° |
| 2026-05-07 19:07 | 51.94522 | 4.41088 | 304 ft | 127 kts | 58° |
| 2026-05-07 19:07 | 51.95007 | 4.42311 | 112 ft | 129 kts | 57° |
| 2026-05-07 19:07 | 51.95470 | 4.43470 | 3 ft | 109 kts | 57° |
| 2026-05-07 19:08 | 51.95910 | 4.44566 | 16 ft | 150 kts | 56° |
| 2026-05-07 19:08 | 51.96510 | 4.46017 | 885 ft | 158 kts | 57° |
| 2026-05-07 19:08 | 51.97101 | 4.47532 | 1958 ft | 158 kts | 58° |
| 2026-05-07 19:08 | 51.97696 | 4.49038 | 2804 ft | 167 kts | 58° |
| 2026-05-07 19:09 | 51.98368 | 4.50702 | 3458 ft | 183 kts | 58° |
| 2026-05-07 19:09 | 51.99093 | 4.52477 | 4008 ft | 190 kts | 58° |
| 2026-05-07 19:09 | 51.99840 | 4.54298 | 4127 ft | 196 kts | 58° |
| 2026-05-07 19:09 | 52.00525 | 4.56174 | 3921 ft | 192 kts | 71° |
| 2026-05-07 19:10 | 52.00521 | 4.58277 | 3672 ft | 189 kts | 110° |
| 2026-05-07 19:10 | 51.99688 | 4.59874 | 3374 ft | 190 kts | 149° |
| 2026-05-07 19:10 | 51.98400 | 4.60229 | 3039 ft | 193 kts | 190° |
| 2026-05-07 19:10 | 51.97250 | 4.59185 | 3022 ft | 194 kts | 218° |
| 2026-05-07 19:11 | 51.96167 | 4.57792 | 3017 ft | 206 kts | 225° |
| 2026-05-07 19:11 | 51.95305 | 4.55899 | 3023 ft | 223 kts | 236° |
| 2026-05-07 19:11 | 51.94391 | 4.53559 | 3017 ft | 257 kts | 237° |
| 2026-05-07 19:11 | 51.93433 | 4.51060 | 3016 ft | 263 kts | 237° |
| 2026-05-07 19:12 | 51.92471 | 4.48531 | 3010 ft | 264 kts | 238° |
| 2026-05-07 19:12 | 51.91507 | 4.45997 | 3007 ft | 264 kts | 237° |
| 2026-05-07 19:12 | 51.90238 | 4.43789 | 3013 ft | 286 kts | 216° |
| 2026-05-07 19:12 | 51.88582 | 4.41909 | 3010 ft | 300 kts | 213° |
| 2026-05-07 19:13 | 51.86846 | 4.40008 | 3009 ft | 302 kts | 212° |
| 2026-05-07 19:13 | 51.85073 | 4.38080 | 3015 ft | 311 kts | 213° |
| 2026-05-07 19:13 | 51.83327 | 4.36185 | 2999 ft | 289 kts | 212° |
| 2026-05-07 19:13 | 51.81731 | 4.34440 | 3006 ft | 267 kts | 212° |
| 2026-05-07 19:14 | 51.80215 | 4.32766 | 3007 ft | 262 kts | 214° |
| 2026-05-07 19:14 | 51.78998 | 4.30591 | 3006 ft | 264 kts | 242° |
| 2026-05-07 19:14 | 51.78578 | 4.27741 | 3012 ft | 266 kts | 271° |
| 2026-05-07 19:14 | 51.79067 | 4.24901 | 3013 ft | 265 kts | 301° |
| 2026-05-07 19:15 | 51.80330 | 4.22777 | 2866 ft | 262 kts | 327° |
| 2026-05-07 19:15 | 51.81888 | 4.21274 | 2384 ft | 259 kts | 333° |
| 2026-05-07 19:15 | 51.83483 | 4.19965 | 2046 ft | 255 kts | 336° |
| 2026-05-07 19:15 | 51.85183 | 4.19306 | 2001 ft | 252 kts | 5° |
| 2026-05-07 19:16 | 51.86771 | 4.20322 | 2011 ft | 248 kts | 43° |
| 2026-05-07 19:16 | 51.87615 | 4.22627 | 2008 ft | 237 kts | 76° |
| 2026-05-07 19:16 | 51.88003 | 4.25122 | 1998 ft | 217 kts | 66° |
| 2026-05-07 19:16 | 51.88811 | 4.26986 | 2003 ft | 199 kts | 54° |
| 2026-05-07 19:17 | 51.89569 | 4.28773 | 1988 ft | 186 kts | 57° |
| 2026-05-07 19:17 | 51.90242 | 4.30438 | 1845 ft | 172 kts | 57° |
| 2026-05-07 19:17 | 51.90874 | 4.32009 | 1630 ft | 160 kts | 58° |
| 2026-05-07 19:17 | 51.91445 | 4.33431 | 1427 ft | 140 kts | 57° |
| 2026-05-07 19:18 | 51.91939 | 4.34662 | 1245 ft | 122 kts | 57° |
| 2026-05-07 19:18 | 51.92390 | 4.35785 | 1087 ft | 116 kts | 57° |
| 2026-05-07 19:18 | 51.92824 | 4.36869 | 923 ft | 114 kts | 57° |
| 2026-05-07 19:18 | 51.93257 | 4.37947 | 762 ft | 115 kts | 56° |
| 2026-05-07 19:19 | 51.93695 | 4.39037 | 613 ft | 115 kts | 56° |
| 2026-05-07 19:19 | 51.94125 | 4.40122 | 456 ft | 115 kts | 56° |
| 2026-05-07 19:19 | 51.94565 | 4.41203 | 295 ft | 115 kts | 56° |
| 2026-05-07 19:19 | 51.94996 | 4.42292 | 134 ft | 115 kts | 57° |
| 2026-05-07 19:20 | 51.95423 | 4.43356 | 2 ft | 104 kts | 56° |
| 2026-05-07 19:20 | 51.95753 | 4.44186 | 0 ft | 73 kts | 57° |
| 2026-05-07 19:20 | 51.95988 | 4.44772 | -1 ft | 53 kts | 57° |
| 2026-05-07 19:20 | 51.96131 | 4.45132 | 2 ft | 25 kts | 57° |
| 2026-05-07 19:21 | 51.96126 | 4.45346 | 2 ft | 21 kts | 127° |
| 2026-05-07 19:21 | 51.96034 | 4.45372 | 2 ft | 12 kts | 229° |
| 2026-05-07 19:21 | 51.95995 | 4.45280 | 1 ft | 10 kts | 237° |
| 2026-05-07 19:21 | 51.95953 | 4.45175 | 1 ft | 12 kts | 237° |
| 2026-05-07 19:22 | 51.95903 | 4.45050 | 1 ft | 14 kts | 237° |
| 2026-05-07 19:22 | 51.95844 | 4.44904 | 2 ft | 16 kts | 237° |
| 2026-05-07 19:22 | 51.95796 | 4.44783 | 2 ft | 0 kts | 237° |
| 2026-05-07 19:23 | 51.95795 | 4.44781 | 2 ft | 1 kts | 237° |
| 2026-05-07 19:23 | 51.95786 | 4.44758 | 1 ft | 4 kts | 237° |
| 2026-05-07 19:23 | 51.95769 | 4.44713 | 1 ft | 6 kts | 237° |
| 2026-05-07 19:23 | 51.95743 | 4.44649 | 1 ft | 8 kts | 237° |
| 2026-05-07 19:24 | 51.95709 | 4.44564 | 1 ft | 10 kts | 237° |
| 2026-05-07 19:24 | 51.95656 | 4.44432 | 1 ft | 17 kts | 237° |
| 2026-05-07 19:24 | 51.95580 | 4.44242 | 1 ft | 21 kts | 237° |
| 2026-05-07 19:24 | 51.95495 | 4.44030 | 1 ft | 23 kts | 236° |
| 2026-05-07 19:25 | 51.95404 | 4.43801 | 2 ft | 24 kts | 237° |
| 2026-05-07 19:25 | 51.95309 | 4.43563 | 1 ft | 26 kts | 237° |
| 2026-05-07 19:25 | 51.95208 | 4.43312 | 1 ft | 28 kts | 237° |
| 2026-05-07 19:25 | 51.95130 | 4.43090 | 2 ft | 15 kts | 246° |
| 2026-05-07 19:26 | 51.95117 | 4.42951 | 1 ft | 0 kts | 305° |
| 2026-05-07 19:26 | 51.95122 | 4.42944 | 2 ft | 2 kts | 314° |
| 2026-05-07 19:27 | 51.95127 | 4.42937 | 2 ft | 2 kts | 317° |
| 2026-05-07 19:27 | 51.95130 | 4.42933 | 2 ft | 0 kts | 320° |
| 2026-05-07 19:28 | 51.95137 | 4.42923 | 1 ft | 2 kts | 323° |
| 2026-05-07 19:28 | 51.95156 | 4.42903 | 1 ft | 4 kts | 325° |
| 2026-05-07 19:29 | 51.95185 | 4.42870 | 2 ft | 6 kts | 325° |
| 2026-05-07 19:29 | 51.95224 | 4.42865 | 2 ft | 6 kts | 26° |